Time;durP1;ratioP1;P1;durP2;ratioP2;P2;SDS_P1;SDS_P2;PMS_P1;PMS_P2;Temp;Humidity;BMP_temperature;BMP_pressure;BME280_temperature;BME280_humidity;BME280_pressure;Samples;Min_cycle;Max_cycle;Signal;HPM_P1;HPM_P2
2022/06/20 00:00:00;;;;;;;6.30;5.80;;;22.00;87.30;;;;;;6225372;28;20243;-64
2022/06/20 00:03:03;;;;;;;7.30;6.70;;;21.90;87.90;;;;;;6225283;28;20248;-64
2022/06/20 00:06:11;;;;;;;7.30;6.70;;;21.90;88.40;;;;;;6224941;28;20582;-64
2022/06/20 00:09:14;;;;;;;6.57;6.07;;;22.00;88.60;;;;;;6225162;28;20270;-65
2022/06/20 00:12:20;;;;;;;6.37;5.87;;;21.90;88.70;;;;;;6224991;28;20241;-65
2022/06/20 00:15:32;;;;;;;6.40;5.90;;;21.90;88.90;;;;;;6225049;28;20274;-65
2022/06/20 00:18:35;;;;;;;6.30;5.80;;;21.90;89.00;;;;;;6224962;28;20240;-65
2022/06/20 00:21:39;;;;;;;9.00;7.13;;;21.90;88.70;;;;;;6224913;28;20233;-64
2022/06/20 00:24:42;;;;;;;6.63;6.13;;;21.80;88.90;;;;;;6224888;28;20239;-64
2022/06/20 00:27:46;;;;;;;7.20;6.60;;;21.80;89.00;;;;;;6224912;28;20229;-65
2022/06/20 00:30:50;;;;;;;7.07;6.50;;;21.80;89.20;;;;;;6225055;28;20225;-64
2022/06/20 00:33:54;;;;;;;7.00;6.10;;;21.80;89.70;;;;;;6224520;28;20570;-65
2022/06/20 00:36:57;;;;;;;6.63;6.13;;;21.80;89.70;;;;;;6227931;28;20340;-64
2022/06/20 00:40:00;;;;;;;7.17;6.47;;;21.80;89.60;;;;;;6229102;28;20232;-64
2022/06/20 00:43:05;;;;;;;6.87;6.30;;;21.80;89.80;;;;;;6228650;28;20237;-64
2022/06/20 00:46:13;;;;;;;6.70;6.10;;;21.80;90.00;;;;;;6228926;28;20269;-64
2022/06/20 00:49:21;;;;;;;7.33;6.30;;;21.70;90.00;;;;;;6228855;28;20229;-64
2022/06/20 00:52:30;;;;;;;6.70;6.10;;;21.60;90.20;;;;;;6228690;28;20230;-64
2022/06/20 00:55:38;;;;;;;6.37;5.87;;;21.60;90.30;;;;;;6229207;28;20224;-64
2022/06/20 00:58:46;;;;;;;7.00;6.43;;;21.50;90.40;;;;;;6228857;28;20232;-64
2022/06/20 01:01:51;;;;;;;6.83;6.20;;;21.50;90.50;;;;;;6228616;28;20225;-64
2022/06/20 01:04:58;;;;;;;6.90;6.40;;;21.50;90.70;;;;;;6228250;28;20194;-64
2022/06/20 01:08:08;;;;;;;7.00;6.40;;;21.40;90.70;;;;;;6229618;28;20229;-64
2022/06/20 01:11:17;;;;;;;7.17;6.63;;;21.40;90.90;;;;;;6229795;28;20261;-64
2022/06/20 01:14:26;;;;;;;7.03;6.47;;;21.40;91.00;;;;;;6228233;28;20248;-64
2022/06/20 01:17:35;;;;;;;7.40;6.80;;;21.40;91.50;;;;;;6228069;28;20248;-64
2022/06/20 01:20:39;;;;;;;7.20;6.67;;;21.30;91.30;;;;;;6228476;28;20240;-64
2022/06/20 01:23:50;;;;;;;7.20;6.70;;;21.30;91.60;;;;;;6227653;28;20229;-64
2022/06/20 01:27:07;;;;;;;7.87;6.33;;;21.20;91.60;;;;;;6228184;28;20229;-64
2022/06/20 01:30:12;;;;;;;7.30;6.70;;;21.20;91.90;;;;;;6227768;28;20240;-64
2022/06/20 01:33:18;;;;;;;7.30;6.70;;;21.10;92.10;;;;;;6227787;28;20236;-64
2022/06/20 01:39:44;;;;;;;6.83;6.03;;;21.10;92.20;;;;;;6227636;28;20573;-64
2022/06/20 01:42:47;;;;;;;7.00;6.37;;;21.00;92.10;;;;;;6227192;28;20240;-64
2022/06/20 01:45:59;;;;;;;7.30;6.50;;;21.00;92.60;;;;;;6227625;28;20570;-64
2022/06/20 01:49:09;;;;;;;7.20;6.60;;;21.00;92.40;;;;;;6226289;28;20383;-65
2022/06/20 01:52:18;;;;;;;7.13;6.47;;;21.00;92.40;;;;;;6227374;28;20244;-64
2022/06/20 01:55:24;;;;;;;6.40;6.00;;;21.00;92.50;;;;;;6227236;28;20237;-64
2022/06/20 01:58:32;;;;;;;6.80;6.30;;;21.00;92.50;;;;;;6227570;28;20665;-64
2022/06/20 02:01:37;;;;;;;6.80;6.30;;;21.00;92.70;;;;;;6226581;28;20240;-65
2022/06/20 02:04:42;;;;;;;7.33;6.47;;;20.90;92.80;;;;;;6226902;28;20209;-65
2022/06/20 02:07:47;;;;;;;6.80;6.30;;;20.80;93.20;;;;;;6227130;28;20508;-65
2022/06/20 02:10:55;;;;;;;6.70;6.20;;;20.70;93.30;;;;;;6226564;28;20205;-64
2022/06/20 02:14:05;;;;;;;6.63;6.13;;;20.70;93.70;;;;;;6227142;28;20218;-65
2022/06/20 02:17:12;;;;;;;7.60;7.10;;;20.60;93.60;;;;;;6227144;28;20243;-64
2022/06/20 02:20:21;;;;;;;7.53;6.70;;;20.60;93.80;;;;;;6226672;28;20532;-64
2022/06/20 02:23:28;;;;;;;7.43;6.77;;;20.60;94.10;;;;;;6226379;28;20701;-64
2022/06/20 02:26:34;;;;;;;7.67;6.97;;;20.60;94.30;;;;;;6226917;28;20685;-64
2022/06/20 02:29:39;;;;;;;8.00;7.40;;;20.60;94.50;;;;;;6226648;28;20240;-64
2022/06/20 02:32:46;;;;;;;7.67;6.93;;;20.60;94.50;;;;;;6226186;28;20248;-64
2022/06/20 02:35:50;;;;;;;7.47;6.97;;;20.60;94.50;;;;;;6226636;28;20247;-64
2022/06/20 02:38:53;;;;;;;7.47;6.97;;;20.60;94.60;;;;;;6217655;28;20239;-64
2022/06/20 02:42:02;;;;;;;7.07;6.57;;;20.60;94.80;;;;;;6226432;28;20248;-64
2022/06/20 02:45:11;;;;;;;7.23;6.63;;;20.60;94.80;;;;;;6226388;28;20240;-64
2022/06/20 02:48:16;;;;;;;7.13;6.47;;;20.50;94.80;;;;;;6226113;28;20225;-63
2022/06/20 02:51:24;;;;;;;7.47;6.87;;;20.50;95.10;;;;;;6226261;28;20229;-63
2022/06/20 02:54:31;;;;;;;8.33;7.30;;;20.30;95.40;;;;;;6225970;28;20245;-63
2022/06/20 02:57:44;;;;;;;7.47;6.83;;;20.30;95.70;;;;;;6225795;28;20236;-63
2022/06/20 03:00:53;;;;;;;6.90;6.40;;;20.20;95.90;;;;;;6225831;28;20236;-63
2022/06/20 03:03:58;;;;;;;7.87;7.17;;;20.10;96.00;;;;;;6225410;28;20242;-63
2022/06/20 03:07:05;;;;;;;7.67;7.07;;;20.10;96.20;;;;;;6225794;28;20240;-63
2022/06/20 03:10:19;;;;;;;9.03;7.60;;;20.10;96.40;;;;;;6225710;28;20248;-64
2022/06/20 03:13:24;;;;;;;8.40;7.70;;;20.10;96.60;;;;;;6225525;28;20669;-64
2022/06/20 03:16:29;;;;;;;8.10;7.40;;;20.10;96.70;;;;;;6225569;28;20225;-64
2022/06/20 03:19:36;;;;;;;8.50;7.50;;;20.10;97.10;;;;;;6225700;28;20312;-64
2022/06/20 03:22:52;;;;;;;8.53;7.93;;;20.00;97.10;;;;;;6225870;28;20229;-64
2022/06/20 03:25:58;;;;;;;8.20;7.40;;;20.00;97.10;;;;;;6225569;28;20221;-64
2022/06/20 03:29:02;;;;;;;7.97;7.37;;;20.10;97.10;;;;;;6225615;28;20565;-64
2022/06/20 03:32:07;;;;;;;8.93;8.00;;;20.20;97.20;;;;;;6225517;28;20647;-64
2022/06/20 03:35:10;;;;;;;7.13;6.53;;;20.10;97.10;;;;;;6225348;28;20244;-64
2022/06/20 03:38:15;;;;;;;7.60;6.93;;;20.10;97.10;;;;;;6225317;28;20232;-64
2022/06/20 03:41:24;;;;;;;7.90;7.30;;;20.20;97.20;;;;;;6225284;28;20240;-64
2022/06/20 03:44:31;;;;;;;8.50;7.90;;;20.10;97.10;;;;;;6225171;28;20667;-64
2022/06/20 03:47:40;;;;;;;7.63;6.93;;;20.20;97.20;;;;;;6225235;28;20239;-64
2022/06/20 03:50:48;;;;;;;7.67;7.00;;;20.20;97.10;;;;;;6225249;28;20229;-64
2022/06/20 03:54:00;;;;;;;7.60;6.90;;;20.30;97.20;;;;;;6225013;28;20233;-65
2022/06/20 03:57:07;;;;;;;8.13;7.37;;;20.30;97.20;;;;;;6225042;28;20244;-64
2022/06/20 04:00:15;;;;;;;9.13;8.43;;;20.30;97.20;;;;;;6223943;28;20240;-64
2022/06/20 04:03:24;;;;;;;10.80;7.33;;;20.20;97.20;;;;;;6200415;28;20226;-63
2022/06/20 04:06:32;;;;;;;8.20;7.60;;;20.30;97.20;;;;;;6201241;28;20234;-64
2022/06/20 04:13:05;;;;;;;9.93;8.47;;;20.50;97.30;;;;;;6229078;28;20237;-64
2022/06/20 04:16:14;;;;;;;8.20;7.47;;;20.40;97.60;;;;;;6229917;28;20228;-64
2022/06/20 04:19:24;;;;;;;11.60;7.70;;;20.40;97.50;;;;;;6228993;28;20264;-64
2022/06/20 04:22:32;;;;;;;9.17;8.33;;;20.60;97.70;;;;;;6229454;28;20252;-64
2022/06/20 04:25:40;;;;;;;7.80;7.17;;;20.70;97.50;;;;;;6219589;28;20237;-64
2022/06/20 04:28:53;;;;;;;9.40;8.60;;;20.80;97.50;;;;;;6215502;28;20214;-64
2022/06/20 04:32:02;;;;;;;9.20;8.30;;;21.00;97.60;;;;;;6226075;28;20240;-64
2022/06/20 04:35:14;;;;;;;8.67;7.87;;;21.10;97.60;;;;;;6229382;28;20225;-64
2022/06/20 04:38:24;;;;;;;8.10;7.50;;;21.30;97.00;;;;;;6228861;28;20232;-64
2022/06/20 04:41:36;;;;;;;10.57;9.63;;;21.40;96.90;;;;;;6232181;28;20237;-63
2022/06/20 04:44:45;;;;;;;10.73;9.63;;;21.50;97.00;;;;;;6234339;28;20233;-64
2022/06/20 04:47:53;;;;;;;11.43;10.10;;;21.60;96.90;;;;;;6228858;28;20689;-64
2022/06/20 04:51:07;;;;;;;11.17;10.27;;;21.70;96.80;;;;;;6228817;28;20225;-64
2022/06/20 04:54:14;;;;;;;11.40;10.30;;;21.80;96.80;;;;;;6220596;28;20242;-64
2022/06/20 04:57:18;;;;;;;11.90;10.90;;;21.90;96.80;;;;;;6210626;28;20230;-63
2022/06/20 05:00:24;;;;;;;11.17;10.07;;;21.90;96.70;;;;;;6204111;28;20237;-64
2022/06/20 05:03:31;;;;;;;10.33;9.33;;;22.10;96.60;;;;;;6203593;28;20255;-64
2022/06/20 05:06:39;;;;;;;11.90;10.80;;;22.20;96.50;;;;;;6204014;28;20226;-64
2022/06/20 05:09:47;;;;;;;10.47;9.33;;;22.40;96.40;;;;;;6203676;28;20546;-64
2022/06/20 05:12:56;;;;;;;11.50;10.43;;;22.50;96.30;;;;;;6204026;28;20249;-64
2022/06/20 05:16:00;;;;;;;12.47;11.27;;;22.60;96.10;;;;;;6203967;28;20237;-64
2022/06/20 05:19:08;;;;;;;10.87;9.97;;;22.80;96.10;;;;;;6203690;28;20246;-64
2022/06/20 05:22:16;;;;;;;13.37;11.53;;;22.90;95.90;;;;;;6203360;28;20252;-64
2022/06/20 05:25:22;;;;;;;11.27;9.90;;;23.00;96.10;;;;;;6203263;28;20574;-64
2022/06/20 05:28:26;;;;;;;11.77;10.60;;;23.20;95.60;;;;;;6203559;28;20658;-64
2022/06/20 05:31:33;;;;;;;12.20;11.20;;;23.30;95.40;;;;;;6203388;28;20709;-65
2022/06/20 05:34:44;;;;;;;14.53;12.33;;;23.40;95.30;;;;;;6203436;28;20226;-65
2022/06/20 05:37:57;;;;;;;14.20;12.57;;;23.50;95.00;;;;;;6203134;28;20265;-64
2022/06/20 05:41:01;;;;;;;12.60;11.30;;;23.70;94.60;;;;;;6203464;28;20237;-65
2022/06/20 05:44:09;;;;;;;13.27;12.07;;;23.90;94.40;;;;;;6203077;28;20234;-65
2022/06/20 05:47:17;;;;;;;13.53;12.33;;;24.00;94.20;;;;;;6203617;28;20225;-64
2022/06/20 05:50:38;;;;;;;13.47;12.17;;;24.20;93.90;;;;;;6203208;28;20316;-64
2022/06/20 05:53:45;;;;;;;14.23;12.73;;;24.20;93.50;;;;;;6203175;28;20582;-63
2022/06/20 05:56:52;;;;;;;14.00;12.70;;;24.30;93.40;;;;;;6202865;28;20712;-64
2022/06/20 06:00:00;;;;;;;13.53;12.27;;;24.40;93.50;;;;;;6203283;28;20571;-64
2022/06/20 06:03:11;;;;;;;13.40;11.63;;;24.60;93.20;;;;;;6202424;28;20281;-64
2022/06/20 06:06:19;;;;;;;14.17;12.70;;;24.70;93.10;;;;;;6202761;28;20234;-63
2022/06/20 06:09:27;;;;;;;15.40;13.03;;;24.90;92.90;;;;;;6202644;28;20226;-65
2022/06/20 06:12:36;;;;;;;14.30;13.00;;;25.30;92.40;;;;;;6202421;28;20686;-64
2022/06/20 06:16:46;;;;;;;16.83;13.80;;;25.80;91.70;;;;;;6202550;28;20230;-64
2022/06/20 06:19:17;;;;;;;16.00;12.70;;;26.30;90.60;;;;;;6202520;28;20233;-64
2022/06/20 06:22:23;;;;;;;14.23;12.63;;;26.80;90.00;;;;;;6202253;28;20244;-65
2022/06/20 06:25:30;;;;;;;14.40;13.00;;;27.20;87.90;;;;;;6202354;28;20570;-65
2022/06/20 06:28:33;;;;;;;15.00;12.17;;;27.70;86.00;;;;;;6202242;28;20225;-65
2022/06/20 06:31:40;;;;;;;15.07;13.70;;;28.10;84.50;;;;;;6202236;28;20233;-65
2022/06/20 06:34:49;;;;;;;13.07;11.77;;;28.70;82.30;;;;;;6202258;28;20217;-64
2022/06/20 06:37:58;;;;;;;13.70;12.40;;;29.20;80.10;;;;;;6202381;28;20213;-63
2022/06/20 06:41:07;;;;;;;13.03;11.60;;;29.80;78.30;;;;;;6201896;28;20689;-65
2022/06/20 06:44:16;;;;;;;12.67;11.37;;;30.50;75.90;;;;;;6201741;28;20233;-65
2022/06/20 06:47:25;;;;;;;13.30;12.00;;;30.90;73.00;;;;;;6201931;28;20287;-65
2022/06/20 06:50:34;;;;;;;13.97;12.77;;;31.60;70.80;;;;;;6201788;28;20685;-65
2022/06/20 06:53:44;;;;;;;13.40;12.05;;;31.80;68.90;;;;;;6202057;28;20248;-65
2022/06/20 06:56:53;;;;;;;12.65;11.50;;;32.40;66.70;;;;;;6201657;28;20694;-64
2022/06/20 07:00:19;;;;;;;14.52;13.15;;;33.10;64.50;;;;;;6201858;28;20233;-64
2022/06/20 07:03:28;;;;;;;12.35;11.23;;;33.60;62.50;;;;;;6201447;28;20244;-64
2022/06/20 07:06:39;;;;;;;12.50;11.27;;;34.20;60.90;;;;;;6201339;28;20666;-65
2022/06/20 07:09:47;;;;;;;13.02;10.95;;;34.70;59.00;;;;;;6201679;28;20561;-64
2022/06/20 07:12:55;;;;;;;10.90;10.05;;;35.00;57.70;;;;;;6201040;28;20248;-64
2022/06/20 07:16:02;;;;;;;12.63;11.48;;;35.50;56.80;;;;;;6201197;28;20228;-65
2022/06/20 07:19:08;;;;;;;13.15;11.57;;;36.10;55.50;;;;;;6208959;28;20240;-67
2022/06/20 07:22:14;;;;;;;11.98;11.05;;;35.90;54.90;;;;;;6210925;28;20236;-67
2022/06/20 07:25:21;;;;;;;13.18;11.88;;;36.50;53.70;;;;;;6220581;28;20228;-67
2022/06/20 07:28:35;;;;;;;12.32;11.05;;;36.30;53.10;;;;;;6225519;28;20699;-67
2022/06/20 07:31:41;;;;;;;11.52;10.25;;;36.70;53.00;;;;;;6224801;28;20225;-67
2022/06/20 07:34:50;;;;;;;11.57;10.27;;;37.00;52.30;;;;;;6224968;28;20208;-66
2022/06/20 07:37:57;;;;;;;11.65;10.75;;;37.50;51.00;;;;;;6224721;28;20574;-67
2022/06/20 07:41:04;;;;;;;14.98;11.85;;;37.50;50.80;;;;;;6225350;28;20242;-67
2022/06/20 07:44:17;;;;;;;12.05;10.65;;;37.40;50.10;;;;;;6224887;28;20247;-66
2022/06/20 07:47:25;;;;;;;11.73;10.73;;;36.70;50.70;;;;;;6229391;28;20239;-67
2022/06/20 07:50:35;;;;;;;12.40;11.30;;;37.00;50.70;;;;;;6230051;28;20718;-67
2022/06/20 07:53:42;;;;;;;12.50;11.55;;;36.40;51.20;;;;;;6229545;28;20268;-66
2022/06/20 07:56:51;;;;;;;11.88;10.68;;;36.00;51.60;;;;;;6229874;28;20224;-67
2022/06/20 08:00:04;;;;;;;12.98;11.93;;;35.60;52.20;;;;;;6229943;28;20347;-69
2022/06/20 08:03:11;;;;;;;13.55;12.48;;;34.60;53.50;;;;;;6229235;28;20266;-66
2022/06/20 08:06:23;;;;;;;13.48;12.15;;;33.10;56.20;;;;;;6229751;28;20243;-66
2022/06/20 08:09:38;;;;;;;12.93;11.70;;;32.60;58.00;;;;;;6230166;28;20228;-68
2022/06/20 08:12:46;;;;;;;13.05;11.90;;;31.90;59.50;;;;;;6233227;28;20233;-66
2022/06/20 08:16:00;;;;;;;13.02;11.73;;;31.90;59.50;;;;;;6230546;28;20244;-66
2022/06/20 08:19:03;;;;;;;14.05;12.95;;;31.80;59.80;;;;;;6229741;28;20236;-66
2022/06/20 08:22:13;;;;;;;13.18;11.90;;;31.70;60.60;;;;;;6228867;28;20246;-67
2022/06/20 08:25:21;;;;;;;14.32;13.10;;;31.80;60.70;;;;;;6232761;28;20243;-67
2022/06/20 08:28:32;;;;;;;12.43;11.52;;;31.90;60.40;;;;;;6235928;28;20239;-66
2022/06/20 08:31:41;;;;;;;14.32;12.60;;;32.00;60.20;;;;;;6229452;28;20236;-65
2022/06/20 08:34:50;;;;;;;14.18;13.07;;;32.00;60.50;;;;;;6227226;28;20228;-66
2022/06/20 08:37:59;;;;;;;13.52;12.35;;;31.90;60.40;;;;;;6205098;28;20197;-66
2022/06/20 08:41:37;;;;;;;13.02;11.73;;;32.10;60.80;;;;;;6205040;28;20240;-66
2022/06/20 08:45:10;;;;;;;12.82;11.82;;;32.10;60.70;;;;;;6194695;28;20240;-67
2022/06/20 08:49:00;;;;;;;12.82;11.90;;;32.30;60.60;;;;;;6190346;28;20237;-67
2022/06/20 08:52:38;;;;;;;13.70;12.55;;;32.10;59.90;;;;;;6204194;28;20241;-67
2022/06/20 08:56:21;;;;;;;12.88;11.98;;;32.00;60.60;;;;;;6213688;28;20224;-67
2022/06/20 08:59:52;;;;;;;13.13;12.02;;;32.10;60.80;;;;;;6228472;28;20240;-67
2022/06/20 09:03:39;;;;;;;13.18;12.10;;;32.20;60.20;;;;;;6228780;28;20363;-67
2022/06/20 09:07:17;;;;;;;13.40;12.50;;;32.30;60.40;;;;;;6228287;28;20239;-67
2022/06/20 09:10:44;;;;;;;13.45;12.45;;;32.40;60.30;;;;;;6213561;28;20229;-67
2022/06/20 09:14:11;;;;;;;13.02;11.70;;;32.40;59.80;;;;;;6228383;28;20220;-67
2022/06/20 09:17:22;;;;;;;13.68;12.43;;;32.40;60.40;;;;;;6228168;28;20229;-69
2022/06/20 09:20:33;;;;;;;13.02;11.82;;;32.40;60.20;;;;;;6228206;28;20255;-67
2022/06/20 09:23:52;;;;;;;13.18;12.02;;;32.60;59.60;;;;;;6227810;28;20319;-68
2022/06/20 09:27:02;;;;;;;14.30;12.30;;;32.50;59.80;;;;;;6227601;28;20251;-67
2022/06/20 09:30:11;;;;;;;14.43;13.25;;;32.60;60.30;;;;;;6227755;28;20532;-66
2022/06/20 09:33:43;;;;;;;13.32;12.32;;;32.40;59.60;;;;;;6227612;28;20244;-67
2022/06/20 09:37:18;;;;;;;12.75;11.57;;;32.50;59.70;;;;;;6227495;28;20243;-68
2022/06/20 09:40:32;;;;;;;13.43;12.32;;;32.70;59.50;;;;;;6227778;28;20652;-67
2022/06/20 09:43:42;;;;;;;12.77;11.85;;;33.00;59.40;;;;;;6226997;28;20251;-67
2022/06/20 09:46:57;;;;;;;13.60;12.48;;;33.20;58.60;;;;;;6227383;28;20322;-67
2022/06/20 09:50:13;;;;;;;13.45;12.20;;;33.20;58.40;;;;;;6227566;28;20193;-67
2022/06/20 09:53:44;;;;;;;14.10;13.05;;;33.30;58.50;;;;;;6227526;28;20229;-66
2022/06/20 09:56:53;;;;;;;14.63;13.63;;;33.10;58.60;;;;;;6226711;28;20767;-67
2022/06/20 10:00:04;;;;;;;15.25;13.73;;;32.90;58.60;;;;;;6203198;28;20229;-66
2022/06/20 10:03:17;;;;;;;14.38;13.15;;;32.70;59.00;;;;;;6189620;28;20292;-66
2022/06/20 10:06:40;;;;;;;13.27;12.18;;;32.50;59.10;;;;;;6203052;28;20658;-65
2022/06/20 10:09:51;;;;;;;13.25;12.23;;;32.70;59.20;;;;;;6201372;28;20233;-68
2022/06/20 10:13:03;;;;;;;13.45;12.20;;;32.70;59.20;;;;;;6201998;28;20233;-66
2022/06/20 10:16:13;;;;;;;14.00;12.90;;;33.00;58.90;;;;;;6202076;28;20240;-66
2022/06/20 10:19:25;;;;;;;13.70;12.70;;;33.20;58.20;;;;;;6202047;28;20363;-64
2022/06/20 10:22:39;;;;;;;13.82;12.80;;;33.30;57.50;;;;;;6215348;28;20244;-65
2022/06/20 10:26:10;;;;;;;13.05;12.15;;;33.40;57.60;;;;;;6233642;28;20304;-64
2022/06/20 10:29:23;;;;;;;12.93;11.63;;;33.50;56.90;;;;;;6227776;28;20627;-65
2022/06/20 10:32:54;;;;;;;12.23;11.43;;;33.20;57.60;;;;;;6226710;28;20572;-65
2022/06/20 10:36:13;;;;;;;12.23;11.32;;;33.40;56.70;;;;;;6226766;28;20228;-65
2022/06/20 10:39:25;;;;;;;13.15;12.25;;;33.30;56.00;;;;;;6226606;28;20232;-65
2022/06/20 10:42:34;;;;;;;13.60;12.40;;;33.30;56.20;;;;;;6225780;28;20240;-65
2022/06/20 10:45:46;;;;;;;12.63;11.77;;;33.50;55.90;;;;;;6225584;28;20237;-67
2022/06/20 10:49:22;;;;;;;12.50;11.25;;;33.70;55.40;;;;;;6225467;28;20233;-66
2022/06/20 10:52:44;;;;;;;12.27;11.43;;;33.80;54.50;;;;;;6225757;28;20251;-66
2022/06/20 10:55:54;;;;;;;13.32;12.25;;;33.80;55.30;;;;;;6225769;28;20208;-66
2022/06/20 10:59:14;;;;;;;13.52;12.05;;;33.90;54.90;;;;;;6225845;28;20193;-67
2022/06/20 11:02:32;;;;;;;11.85;10.85;;;33.90;55.40;;;;;;6225769;28;20237;-65
2022/06/20 11:05:39;;;;;;;13.32;12.23;;;34.10;55.30;;;;;;6225515;28;20251;-65
2022/06/20 11:08:52;;;;;;;16.38;12.75;;;34.20;54.70;;;;;;6226010;28;20228;-66
2022/06/20 11:12:02;;;;;;;13.70;12.38;;;34.20;54.80;;;;;;6225521;28;20236;-65
2022/06/20 11:15:16;;;;;;;12.75;11.60;;;34.30;54.30;;;;;;6225288;28;20696;-67
2022/06/20 11:18:33;;;;;;;13.05;12.05;;;34.40;53.80;;;;;;6225588;28;20232;-65
2022/06/20 11:21:46;;;;;;;12.70;11.50;;;34.50;53.20;;;;;;6225216;28;20221;-66
2022/06/20 11:24:58;;;;;;;12.82;11.75;;;34.60;52.80;;;;;;6225283;28;20228;-65
2022/06/20 11:28:28;;;;;;;12.18;11.18;;;34.50;52.20;;;;;;6224944;28;20230;-68
2022/06/20 11:31:43;;;;;;;12.65;11.35;;;34.40;51.50;;;;;;6223504;28;20236;-67
2022/06/20 11:35:15;;;;;;;13.10;12.10;;;34.50;51.30;;;;;;6224673;28;20299;-67
2022/06/20 11:38:53;;;;;;;11.80;10.95;;;34.30;51.80;;;;;;6225483;28;20232;-69
2022/06/20 11:42:00;;;;;;;14.07;12.95;;;34.00;52.10;;;;;;6225286;28;20232;-67
2022/06/20 11:45:20;;;;;;;14.65;13.45;;;33.80;55.40;;;;;;6224896;28;20250;-68
2022/06/20 11:48:36;;;;;;;14.95;13.85;;;33.30;57.00;;;;;;6225702;28;20251;-68
2022/06/20 11:51:51;;;;;;;14.38;13.35;;;33.10;57.80;;;;;;6224944;28;20228;-68
2022/06/20 11:55:00;;;;;;;14.77;13.27;;;33.20;57.90;;;;;;6224803;28;20570;-68
2022/06/20 11:58:17;;;;;;;15.65;14.35;;;33.30;58.60;;;;;;6224928;28;20228;-68
2022/06/20 12:01:25;;;;;;;15.45;14.25;;;33.40;58.70;;;;;;6225431;28;20271;-68
2022/06/20 12:04:36;;;;;;;15.82;14.18;;;33.40;58.80;;;;;;6225878;28;20247;-68
2022/06/20 12:08:10;;;;;;;15.27;13.68;;;33.30;58.90;;;;;;6216114;28;20236;-68
2022/06/20 12:11:33;;;;;;;15.50;14.20;;;33.40;58.70;;;;;;6225119;28;20286;-69
2022/06/20 12:14:46;;;;;;;14.43;13.18;;;33.40;58.80;;;;;;6225377;28;20561;-67
2022/06/20 12:17:59;;;;;;;15.70;14.43;;;33.70;58.60;;;;;;6225472;28;20240;-68
2022/06/20 12:24:29;;;;;;;15.52;13.95;;;34.10;58.00;;;;;;6225706;28;20658;-68
2022/06/20 12:27:39;;;;;;;15.30;14.13;;;34.20;57.20;;;;;;6224603;28;20236;-70
2022/06/20 12:30:42;;;;;;;14.70;13.50;;;34.20;57.70;;;;;;6222261;28;20685;-66
2022/06/20 12:33:49;;;;;;;14.40;13.48;;;34.20;57.50;;;;;;6204959;28;20234;-66
2022/06/20 12:36:57;;;;;;;14.63;13.52;;;34.20;57.00;;;;;;6204957;28;20299;-67
2022/06/20 12:40:15;;;;;;;13.52;12.52;;;34.10;57.30;;;;;;6204471;28;20229;-67
2022/06/20 12:43:22;;;;;;;14.68;13.35;;;34.10;57.50;;;;;;6203766;28;20678;-67
2022/06/20 12:46:36;;;;;;;13.60;12.52;;;34.10;57.30;;;;;;6204513;28;20257;-69
2022/06/20 12:49:51;;;;;;;14.02;13.10;;;33.80;57.70;;;;;;6204125;28;20240;-69
2022/06/20 12:53:22;;;;;;;14.73;13.57;;;33.70;58.30;;;;;;6204699;28;20233;-70
2022/06/20 12:56:41;;;;;;;15.07;13.85;;;33.40;59.20;;;;;;6204836;28;20240;-68
2022/06/20 13:00:01;;;;;;;16.38;15.15;;;33.70;59.50;;;;;;6204206;28;20252;-68
2022/06/20 13:03:41;;;;;;;16.00;14.80;;;33.60;60.10;;;;;;6203940;28;20233;-68
2022/06/20 13:07:22;;;;;;;15.52;14.38;;;33.60;61.40;;;;;;6204279;28;20332;-68
2022/06/20 13:10:47;;;;;;;14.57;13.57;;;33.70;62.10;;;;;;6203799;28;20229;-69
2022/06/20 13:14:26;;;;;;;16.42;15.23;;;34.10;62.20;;;;;;6203653;28;20225;-69
2022/06/20 13:17:40;;;;;;;16.45;15.35;;;34.40;62.10;;;;;;6208343;28;20232;-68
2022/06/20 13:20:49;;;;;;;16.65;15.45;;;34.30;61.80;;;;;;6221354;28;20229;-67
2022/06/20 13:24:04;;;;;;;18.85;16.90;;;34.60;61.70;;;;;;6224924;28;20240;-67
2022/06/20 13:27:24;;;;;;;15.82;14.43;;;34.60;61.00;;;;;;6227326;28;20233;-68
2022/06/20 13:30:46;;;;;;;16.00;14.80;;;34.70;61.10;;;;;;6213782;28;20239;-67
2022/06/20 13:33:58;;;;;;;16.23;14.93;;;34.40;61.60;;;;;;6207838;28;20225;-68
2022/06/20 13:37:23;;;;;;;16.23;15.05;;;34.20;61.50;;;;;;6213149;28;20691;-70
2022/06/20 13:40:46;;;;;;;16.30;15.00;;;34.10;61.80;;;;;;6202994;28;20689;-68
2022/06/20 13:43:58;;;;;;;15.95;14.65;;;34.00;61.80;;;;;;6203136;28;20670;-66
2022/06/20 13:47:11;;;;;;;16.60;14.95;;;34.00;62.10;;;;;;6205986;28;20586;-66
2022/06/20 13:50:21;;;;;;;16.42;15.02;;;34.00;61.90;;;;;;6204841;28;20233;-68
2022/06/20 13:53:32;;;;;;;16.15;14.93;;;33.70;62.90;;;;;;6206579;28;20245;-66
2022/06/20 13:56:41;;;;;;;15.98;14.48;;;33.70;63.70;;;;;;6206416;28;20312;-66
2022/06/20 13:59:53;;;;;;;15.50;14.30;;;33.90;63.30;;;;;;6226383;28;20235;-66
2022/06/20 14:03:24;;;;;;;15.32;14.07;;;33.90;62.90;;;;;;6223926;28;20233;-67
2022/06/20 14:06:44;;;;;;;15.82;14.45;;;34.00;63.40;;;;;;6209687;28;20311;-67
2022/06/20 14:09:53;;;;;;;15.18;14.02;;;33.90;63.30;;;;;;6202366;28;20225;-66
2022/06/20 14:13:01;;;;;;;14.90;13.90;;;34.00;62.80;;;;;;6200938;28;20553;-66
2022/06/20 14:16:23;;;;;;;15.40;14.30;;;34.00;62.80;;;;;;6192293;28;20228;-67
2022/06/20 14:19:33;;;;;;;16.45;15.35;;;33.80;63.30;;;;;;6206474;28;20233;-65
2022/06/20 14:22:40;;;;;;;15.75;14.52;;;33.40;63.90;;;;;;6202082;28;20670;-67
2022/06/20 14:25:47;;;;;;;15.05;13.95;;;33.20;64.40;;;;;;6201708;28;20490;-67
2022/06/20 14:28:50;;;;;;;14.73;13.80;;;33.00;64.60;;;;;;6202456;28;20220;-67
2022/06/20 14:31:58;;;;;;;15.35;14.30;;;32.90;64.90;;;;;;6202213;28;20588;-68
2022/06/20 14:35:21;;;;;;;16.33;15.13;;;32.90;65.30;;;;;;6225810;28;20189;-68
2022/06/20 14:38:29;;;;;;;15.40;14.35;;;33.00;65.50;;;;;;6226303;28;20233;-68
2022/06/20 14:41:42;;;;;;;15.68;14.57;;;32.80;65.50;;;;;;6226489;28;20247;-68
2022/06/20 14:44:55;;;;;;;15.27;14.15;;;32.90;65.90;;;;;;6225972;28;20241;-67
2022/06/20 14:48:04;;;;;;;15.43;14.45;;;33.00;65.70;;;;;;6221009;28;20226;-68
2022/06/20 14:51:15;;;;;;;16.38;14.88;;;33.20;65.10;;;;;;6200640;28;20237;-68
2022/06/20 14:54:23;;;;;;;15.40;14.40;;;33.10;65.20;;;;;;6201277;28;20234;-69
2022/06/20 14:57:32;;;;;;;15.50;14.40;;;33.20;64.30;;;;;;6201225;28;20229;-68
2022/06/20 15:00:43;;;;;;;15.93;14.77;;;33.10;64.40;;;;;;6213771;28;20307;-68
2022/06/20 15:03:51;;;;;;;16.42;15.27;;;33.00;65.20;;;;;;6221773;28;20221;-68
2022/06/20 15:07:11;;;;;;;16.10;14.90;;;32.90;65.90;;;;;;6219976;28;20235;-66
2022/06/20 15:10:22;;;;;;;16.33;14.90;;;33.00;65.70;;;;;;6201191;28;20229;-69
2022/06/20 15:13:45;;;;;;;15.05;14.05;;;32.90;66.40;;;;;;6223326;28;20708;-68
2022/06/20 15:16:52;;;;;;;14.75;13.73;;;33.00;66.70;;;;;;6220536;28;20228;-67
2022/06/20 15:20:00;;;;;;;15.30;14.07;;;32.90;67.30;;;;;;6225590;28;20272;-68
2022/06/20 15:23:19;;;;;;;16.60;15.13;;;32.70;67.00;;;;;;6225204;28;20233;-67
2022/06/20 15:26:26;;;;;;;15.45;14.40;;;32.50;67.80;;;;;;6225066;28;20236;-66
2022/06/20 15:29:54;;;;;;;16.05;14.75;;;32.30;69.70;;;;;;6224948;28;20236;-66
2022/06/20 15:32:58;;;;;;;16.20;15.05;;;31.90;71.50;;;;;;6225078;28;20368;-67
2022/06/20 15:36:09;;;;;;;16.75;15.55;;;31.60;72.70;;;;;;6225127;28;20318;-67
2022/06/20 15:39:21;;;;;;;17.38;15.88;;;31.50;74.00;;;;;;6225412;28;20238;-68
2022/06/20 15:42:30;;;;;;;15.63;14.35;;;31.50;75.20;;;;;;6228551;28;20237;-67
2022/06/20 15:45:37;;;;;;;17.17;15.82;;;31.30;75.70;;;;;;6227975;28;20224;-67
2022/06/20 15:48:48;;;;;;;16.48;15.18;;;31.20;75.90;;;;;;6225312;28;20266;-67
2022/06/20 15:52:05;;;;;;;15.75;14.48;;;31.30;77.60;;;;;;6224792;28;20311;-67
2022/06/20 15:55:35;;;;;;;18.30;16.88;;;31.20;78.10;;;;;;6225083;28;20229;-67
2022/06/20 15:59:13;;;;;;;16.55;15.35;;;31.10;78.10;;;;;;6224646;28;20234;-67
2022/06/20 16:02:33;;;;;;;16.25;14.90;;;30.90;78.50;;;;;;6199478;28;20233;-67
2022/06/20 16:05:44;;;;;;;17.45;16.05;;;30.80;79.10;;;;;;6200707;28;20372;-65
2022/06/20 16:08:57;;;;;;;16.88;15.68;;;30.70;79.30;;;;;;6225818;28;20260;-67
2022/06/20 16:12:09;;;;;;;17.55;15.90;;;30.60;78.70;;;;;;6229396;28;20224;-66
2022/06/20 16:15:15;;;;;;;19.30;17.45;;;30.50;81.90;;;;;;6228540;28;20224;-68
2022/06/20 16:18:22;;;;;;;18.65;17.08;;;30.40;84.40;;;;;;6233843;28;20224;-65
2022/06/20 16:21:31;;;;;;;21.93;20.03;;;29.90;88.10;;;;;;6236447;28;20228;-65
2022/06/20 16:24:38;;;;;;;25.50;22.80;;;29.10;92.30;;;;;;6233856;28;20303;-66
2022/06/20 16:27:43;;;;;;;25.60;23.33;;;28.10;97.70;;;;;;6230364;28;20232;-66
2022/06/20 16:30:59;;;;;;;26.60;24.23;;;27.70;99.90;;;;;;6229737;28;20243;-65